Time;durP1;ratioP1;P1;durP2;ratioP2;P2;SDS_P1;SDS_P2;PMS_P1;PMS_P2;Temp;Humidity;BMP_temperature;BMP_pressure;BME280_temperature;BME280_humidity;BME280_pressure;Samples;Min_cycle;Max_cycle;Signal;HPM_P1;HPM_P2
2022/03/15 00:00:47;;;;;;;46.33;29.10;;;;;;;;;;2076620;28;20169;-58
2022/03/15 00:01:47;;;;;;;45.73;28.60;;;;;;;;;;2077040;28;20216;-58
2022/03/15 00:02:49;;;;;;;43.53;27.80;;;;;;;;;;2075073;28;20185;-56
2022/03/15 00:03:49;;;;;;;43.43;29.37;;;;;;;;;;2072002;28;20176;-59
2022/03/15 00:04:50;;;;;;;43.07;27.20;;;;;;;;;;2077544;28;20177;-58
2022/03/15 00:05:50;;;;;;;42.23;27.90;;;;;;;;;;2078256;28;20169;-59
2022/03/15 00:06:50;;;;;;;42.83;27.73;;;;;;;;;;2077350;28;20252;-58
2022/03/15 00:07:51;;;;;;;42.63;28.37;;;;;;;;;;2070072;28;20184;-58
2022/03/15 00:08:51;;;;;;;43.97;29.00;;;;;;;;;;2070723;28;20197;-58
2022/03/15 00:09:51;;;;;;;42.60;29.47;;;;;;;;;;2077422;28;20307;-56
2022/03/15 00:10:55;;;;;;;48.50;28.13;;;;;;;;;;2068986;28;20184;-57
2022/03/15 00:11:56;;;;;;;48.17;29.37;;;;;;;;;;2072014;28;20279;-56
2022/03/15 00:12:56;;;;;;;52.17;29.73;;;;;;;;;;2078034;28;20652;-58
2022/03/15 00:13:58;;;;;;;47.97;30.07;;;;;;;;;;2077785;28;20614;-57
2022/03/15 00:14:58;;;;;;;44.03;28.47;;;;;;;;;;2075932;28;20201;-56
2022/03/15 00:16:02;;;;;;;44.00;28.03;;;;;;;;;;2071732;28;20503;-57
2022/03/15 00:17:04;;;;;;;43.63;27.37;;;;;;;;;;2075760;28;20189;-59
2022/03/15 00:18:04;;;;;;;52.23;28.60;;;;;;;;;;2075434;28;20177;-64
2022/03/15 00:19:05;;;;;;;43.57;28.53;;;;;;;;;;2075220;28;20176;-60
2022/03/15 00:20:07;;;;;;;49.13;27.30;;;;;;;;;;2084072;28;20662;-55
2022/03/15 00:21:10;;;;;;;43.33;27.20;;;;;;;;;;2079624;28;20537;-60
2022/03/15 00:22:10;;;;;;;44.90;27.90;;;;;;;;;;2066746;28;20205;-58
2022/03/15 00:23:11;;;;;;;43.20;27.37;;;;;;;;;;2067433;28;20622;-57
2022/03/15 00:24:11;;;;;;;43.90;29.23;;;;;;;;;;2067585;28;20306;-57
2022/03/15 00:25:15;;;;;;;46.93;28.00;;;;;;;;;;2068808;28;20239;-58
2022/03/15 00:26:15;;;;;;;45.27;30.67;;;;;;;;;;2060791;28;20182;-57
2022/03/15 00:27:16;;;;;;;53.83;31.20;;;;;;;;;;2068045;28;20205;-54
2022/03/15 00:28:16;;;;;;;46.23;30.67;;;;;;;;;;2076375;28;20264;-59
2022/03/15 00:29:23;;;;;;;50.47;29.40;;;;;;;;;;2076367;28;20169;-56
2022/03/15 00:30:24;;;;;;;54.43;30.87;;;;;;;;;;2067630;28;20615;-55
2022/03/15 00:31:25;;;;;;;46.53;29.10;;;;;;;;;;2067453;28;20173;-57
2022/03/15 00:32:25;;;;;;;48.67;31.17;;;;;;;;;;2060598;28;20194;-57
2022/03/15 00:33:26;;;;;;;57.47;32.60;;;;;;;;;;2064891;28;20195;-59
2022/03/15 00:34:26;;;;;;;55.07;30.87;;;;;;;;;;2064250;28;20194;-60
2022/03/15 00:35:27;;;;;;;48.13;29.60;;;;;;;;;;2073323;28;20730;-57
2022/03/15 00:36:27;;;;;;;51.73;29.00;;;;;;;;;;2070184;28;20201;-60
2022/03/15 00:37:27;;;;;;;49.77;29.43;;;;;;;;;;2065335;28;20265;-60
2022/03/15 00:38:28;;;;;;;45.50;29.87;;;;;;;;;;2072510;28;20260;-57
2022/03/15 00:39:28;;;;;;;46.83;28.93;;;;;;;;;;2072051;28;20246;-57
2022/03/15 00:40:29;;;;;;;49.23;29.90;;;;;;;;;;2064168;28;20181;-56
2022/03/15 00:41:29;;;;;;;55.10;30.93;;;;;;;;;;2071995;28;20190;-60
2022/03/15 00:42:29;;;;;;;46.00;30.73;;;;;;;;;;2079049;28;20173;-60
2022/03/15 00:43:32;;;;;;;54.40;30.57;;;;;;;;;;2079600;28;20173;-60
2022/03/15 00:44:32;;;;;;;48.43;29.53;;;;;;;;;;2072226;28;20219;-58
2022/03/15 00:45:32;;;;;;;42.20;29.13;;;;;;;;;;2079429;28;20173;-58
2022/03/15 00:46:33;;;;;;;46.40;29.80;;;;;;;;;;2078523;28;20189;-59
2022/03/15 00:47:35;;;;;;;48.37;28.60;;;;;;;;;;2078112;28;20168;-57
2022/03/15 00:48:35;;;;;;;54.57;30.43;;;;;;;;;;2078977;28;20826;-57
2022/03/15 00:49:35;;;;;;;45.53;31.93;;;;;;;;;;2071743;28;20178;-57
2022/03/15 00:50:39;;;;;;;51.47;31.57;;;;;;;;;;2072041;28;20192;-57
2022/03/15 00:51:39;;;;;;;48.20;30.27;;;;;;;;;;2079548;28;20204;-53
2022/03/15 00:52:39;;;;;;;41.87;28.97;;;;;;;;;;2077984;28;20181;-58
2022/03/15 00:53:40;;;;;;;49.73;30.60;;;;;;;;;;2080498;28;20157;-56
2022/03/15 00:54:40;;;;;;;48.50;29.43;;;;;;;;;;2076377;28;20205;-59
2022/03/15 00:55:40;;;;;;;46.13;28.90;;;;;;;;;;2079879;28;20252;-60
2022/03/15 00:56:40;;;;;;;49.10;28.73;;;;;;;;;;2080217;28;20192;-58
2022/03/15 00:57:41;;;;;;;42.57;27.90;;;;;;;;;;2073048;28;20177;-56
2022/03/15 00:58:41;;;;;;;41.93;26.27;;;;;;;;;;2067570;28;20270;-57
2022/03/15 00:59:42;;;;;;;42.27;28.10;;;;;;;;;;2063113;28;20301;-57
2022/03/15 01:00:48;;;;;;;46.13;28.47;;;;;;;;;;2072558;28;20169;-57
2022/03/15 01:01:49;;;;;;;45.20;29.20;;;;;;;;;;2074422;28;20223;-64
2022/03/15 01:02:49;;;;;;;40.57;28.77;;;;;;;;;;2068084;28;20194;-57
2022/03/15 01:03:50;;;;;;;46.07;29.47;;;;;;;;;;2065615;28;20186;-60
2022/03/15 01:04:51;;;;;;;45.80;29.53;;;;;;;;;;2077919;28;20203;-60
2022/03/15 01:05:52;;;;;;;52.77;31.87;;;;;;;;;;2076293;28;20551;-59
2022/03/15 01:06:52;;;;;;;52.90;32.77;;;;;;;;;;2078191;28;20650;-58
2022/03/15 01:07:52;;;;;;;52.70;32.27;;;;;;;;;;2065595;28;20278;-58
2022/03/15 01:08:52;;;;;;;57.77;34.07;;;;;;;;;;2066700;28;20245;-57
2022/03/15 01:09:53;;;;;;;55.20;33.87;;;;;;;;;;2075648;28;20192;-58
2022/03/15 01:10:53;;;;;;;58.00;33.90;;;;;;;;;;2078525;28;20175;-63
2022/03/15 01:11:53;;;;;;;53.80;32.13;;;;;;;;;;2076715;28;20197;-63
2022/03/15 01:12:54;;;;;;;50.67;30.93;;;;;;;;;;2073487;28;20178;-57
2022/03/15 01:13:54;;;;;;;48.70;29.63;;;;;;;;;;2077445;28;20710;-60
2022/03/15 01:14:56;;;;;;;61.17;32.47;;;;;;;;;;2072187;28;20661;-56
2022/03/15 01:15:57;;;;;;;51.03;31.23;;;;;;;;;;2077852;28;20226;-60
2022/03/15 01:16:57;;;;;;;58.73;30.50;;;;;;;;;;2070495;28;20166;-59
2022/03/15 01:17:59;;;;;;;47.07;29.53;;;;;;;;;;2065861;28;20320;-56
2022/03/15 01:18:59;;;;;;;48.17;29.73;;;;;;;;;;2068629;28;20196;-59
2022/03/15 01:19:59;;;;;;;51.47;29.87;;;;;;;;;;2080302;28;20165;-58
2022/03/15 01:21:00;;;;;;;46.53;27.60;;;;;;;;;;2078598;28;20256;-61
2022/03/15 01:22:00;;;;;;;46.57;27.60;;;;;;;;;;2078027;28;20200;-59
2022/03/15 01:23:02;;;;;;;48.70;27.03;;;;;;;;;;2071240;28;20692;-58
2022/03/15 01:24:02;;;;;;;49.23;28.60;;;;;;;;;;2075249;28;20208;-59
2022/03/15 01:25:02;;;;;;;44.07;29.07;;;;;;;;;;2066451;28;20165;-59
2022/03/15 01:26:03;;;;;;;41.30;28.40;;;;;;;;;;2070681;28;20182;-58
2022/03/15 01:27:03;;;;;;;44.73;28.33;;;;;;;;;;2078054;28;20288;-57
2022/03/15 01:28:04;;;;;;;49.83;29.13;;;;;;;;;;2078047;28;20187;-58
2022/03/15 01:29:04;;;;;;;44.80;28.83;;;;;;;;;;2078061;28;20181;-60
2022/03/15 01:30:06;;;;;;;47.63;28.40;;;;;;;;;;2070108;28;20174;-58
2022/03/15 01:31:07;;;;;;;43.60;29.20;;;;;;;;;;2078964;28;20177;-58
2022/03/15 01:32:07;;;;;;;46.67;29.07;;;;;;;;;;2078721;28;20256;-57
2022/03/15 01:33:07;;;;;;;42.43;27.30;;;;;;;;;;2070636;28;20182;-58
2022/03/15 01:34:09;;;;;;;44.47;27.77;;;;;;;;;;2077566;28;20180;-57
2022/03/15 01:35:10;;;;;;;44.07;27.40;;;;;;;;;;2079810;28;20184;-59
2022/03/15 01:36:10;;;;;;;46.90;28.50;;;;;;;;;;2077055;28;20289;-57
2022/03/15 01:37:11;;;;;;;44.37;27.83;;;;;;;;;;2070518;28;20210;-58
2022/03/15 01:38:11;;;;;;;42.20;27.53;;;;;;;;;;2078954;28;20181;-57
2022/03/15 01:39:12;;;;;;;41.90;27.43;;;;;;;;;;2069867;28;20178;-57
2022/03/15 01:40:16;;;;;;;43.73;27.77;;;;;;;;;;2069772;28;20177;-60
2022/03/15 01:41:18;;;;;;;41.67;28.30;;;;;;;;;;2078576;28;20164;-57
2022/03/15 01:42:19;;;;;;;38.17;27.03;;;;;;;;;;2078124;28;20165;-59
2022/03/15 01:43:19;;;;;;;43.30;27.33;;;;;;;;;;2077564;28;20240;-61
2022/03/15 01:44:21;;;;;;;40.23;28.73;;;;;;;;;;2077019;28;20214;-59
2022/03/15 01:45:29;;;;;;;46.10;29.83;;;;;;;;;;2077335;28;20200;-57
2022/03/15 01:46:30;;;;;;;45.30;28.97;;;;;;;;;;2068795;28;20192;-58
2022/03/15 01:47:31;;;;;;;46.47;30.60;;;;;;;;;;2061237;28;20178;-59
2022/03/15 01:48:31;;;;;;;43.37;29.33;;;;;;;;;;2061195;28;20252;-59
2022/03/15 01:49:31;;;;;;;45.33;30.60;;;;;;;;;;2068714;28;20169;-60
2022/03/15 01:50:32;;;;;;;50.50;32.37;;;;;;;;;;2077433;28;20172;-59
2022/03/15 01:51:33;;;;;;;47.07;30.57;;;;;;;;;;2075959;28;20260;-59
2022/03/15 01:52:34;;;;;;;52.83;32.47;;;;;;;;;;2077357;28;20241;-59
2022/03/15 01:53:37;;;;;;;45.57;31.57;;;;;;;;;;2068054;28;20162;-57
2022/03/15 01:54:40;;;;;;;46.53;32.47;;;;;;;;;;2060677;28;20256;-58
2022/03/15 01:55:40;;;;;;;43.37;31.57;;;;;;;;;;2075395;28;20181;-59
2022/03/15 01:56:41;;;;;;;51.10;31.47;;;;;;;;;;2064984;28;20182;-59
2022/03/15 01:57:42;;;;;;;45.83;30.80;;;;;;;;;;2066655;28;20260;-60
2022/03/15 01:58:42;;;;;;;50.80;33.73;;;;;;;;;;2060031;28;20628;-57
2022/03/15 01:59:42;;;;;;;48.30;31.13;;;;;;;;;;2076159;28;20197;-58
2022/03/15 02:00:44;;;;;;;45.03;30.20;;;;;;;;;;2063709;28;20678;-58
2022/03/15 02:01:46;;;;;;;48.50;29.70;;;;;;;;;;2074190;28;20189;-58
2022/03/15 02:02:46;;;;;;;45.77;30.60;;;;;;;;;;2076138;28;20180;-56
2022/03/15 02:03:47;;;;;;;45.63;29.33;;;;;;;;;;2076074;28;20196;-61
2022/03/15 02:04:48;;;;;;;42.57;29.27;;;;;;;;;;2067245;28;20257;-60
2022/03/15 02:05:49;;;;;;;44.73;30.27;;;;;;;;;;2062126;28;20183;-60
2022/03/15 02:07:00;;;;;;;41.77;27.87;;;;;;;;;;2069989;28;20183;-60
2022/03/15 02:08:07;;;;;;;40.17;26.57;;;;;;;;;;2076280;28;20197;-58
2022/03/15 02:09:08;;;;;;;43.73;28.63;;;;;;;;;;2072586;28;20200;-58
2022/03/15 02:10:10;;;;;;;42.10;28.43;;;;;;;;;;2076367;28;20217;-58
2022/03/15 02:11:10;;;;;;;45.20;28.30;;;;;;;;;;2076022;28;20177;-57
2022/03/15 02:12:10;;;;;;;45.50;28.63;;;;;;;;;;2072542;28;20680;-57
2022/03/15 02:13:11;;;;;;;43.90;29.83;;;;;;;;;;2076071;28;20176;-60
2022/03/15 02:14:11;;;;;;;49.93;30.33;;;;;;;;;;2075600;28;20260;-58
2022/03/15 02:15:11;;;;;;;43.87;29.40;;;;;;;;;;2069953;28;20223;-57
2022/03/15 02:16:12;;;;;;;40.73;27.83;;;;;;;;;;2067144;28;20204;-56
2022/03/15 02:17:12;;;;;;;36.67;26.63;;;;;;;;;;2076321;28;20189;-58
2022/03/15 02:18:12;;;;;;;39.00;27.47;;;;;;;;;;2072147;28;20184;-58
2022/03/15 02:19:13;;;;;;;40.43;27.33;;;;;;;;;;2072470;28;20192;-58
2022/03/15 02:20:13;;;;;;;41.50;28.47;;;;;;;;;;2072450;28;20249;-60
2022/03/15 02:21:13;;;;;;;41.50;27.90;;;;;;;;;;2069678;28;20169;-59
2022/03/15 02:22:14;;;;;;;41.60;28.43;;;;;;;;;;2071428;28;20199;-58
2022/03/15 02:23:16;;;;;;;40.87;28.07;;;;;;;;;;2063804;28;20174;-59
2022/03/15 02:24:17;;;;;;;40.90;27.83;;;;;;;;;;2063937;28;20206;-58
2022/03/15 02:25:17;;;;;;;41.07;27.37;;;;;;;;;;2073534;28;20177;-57
2022/03/15 02:26:18;;;;;;;47.07;29.33;;;;;;;;;;2074346;28;20189;-59
2022/03/15 02:27:21;;;;;;;40.27;27.90;;;;;;;;;;2073541;28;20185;-58
2022/03/15 02:28:21;;;;;;;45.03;28.20;;;;;;;;;;2075761;28;20181;-57
2022/03/15 02:29:21;;;;;;;42.27;28.43;;;;;;;;;;2075919;28;20185;-59
2022/03/15 02:30:22;;;;;;;42.47;28.57;;;;;;;;;;2072904;28;20177;-57
2022/03/15 02:31:22;;;;;;;41.10;27.57;;;;;;;;;;2075269;28;20184;-63
2022/03/15 02:32:22;;;;;;;44.43;28.43;;;;;;;;;;2068212;28;20169;-58
2022/03/15 02:33:23;;;;;;;43.80;29.67;;;;;;;;;;2073589;28;20243;-59
2022/03/15 02:34:23;;;;;;;43.10;29.03;;;;;;;;;;2060628;28;20194;-58
2022/03/15 02:35:24;;;;;;;47.63;31.00;;;;;;;;;;2065538;28;20216;-58
2022/03/15 02:36:24;;;;;;;50.30;29.63;;;;;;;;;;2071151;28;20232;-58
2022/03/15 02:37:24;;;;;;;48.20;32.40;;;;;;;;;;2076305;28;20247;-58
2022/03/15 02:38:25;;;;;;;50.80;34.00;;;;;;;;;;2073726;28;20208;-61
2022/03/15 02:39:25;;;;;;;50.07;33.60;;;;;;;;;;2074701;28;20185;-60
2022/03/15 02:40:25;;;;;;;48.67;32.60;;;;;;;;;;2068104;28;20188;-59
2022/03/15 02:41:26;;;;;;;54.27;33.27;;;;;;;;;;2073384;28;20276;-56
2022/03/15 02:42:26;;;;;;;53.07;32.83;;;;;;;;;;2074787;28;20211;-59
2022/03/15 02:43:26;;;;;;;49.60;31.17;;;;;;;;;;2075878;28;20215;-58
2022/03/15 02:44:27;;;;;;;51.43;32.13;;;;;;;;;;2075337;28;20205;-59
2022/03/15 02:45:27;;;;;;;45.73;33.43;;;;;;;;;;2066537;28;20189;-59
2022/03/15 02:46:29;;;;;;;50.10;32.17;;;;;;;;;;2067835;28;20173;-60
2022/03/15 02:47:30;;;;;;;51.57;34.10;;;;;;;;;;2075973;28;20192;-59
2022/03/15 02:48:30;;;;;;;51.20;34.53;;;;;;;;;;2074320;28;20650;-57
2022/03/15 02:49:31;;;;;;;48.27;33.43;;;;;;;;;;2075150;28;20608;-55
2022/03/15 02:50:31;;;;;;;51.00;34.03;;;;;;;;;;2075205;28;20252;-56
2022/03/15 02:51:31;;;;;;;53.80;34.03;;;;;;;;;;2072756;28;20268;-59
2022/03/15 02:52:32;;;;;;;52.47;33.10;;;;;;;;;;2067141;28;20220;-57
2022/03/15 02:53:32;;;;;;;52.67;33.50;;;;;;;;;;2072826;28;20180;-54
2022/03/15 02:54:32;;;;;;;47.27;31.77;;;;;;;;;;2065091;28;20174;-59
2022/03/15 02:55:33;;;;;;;50.87;33.40;;;;;;;;;;2066319;28;20178;-56
2022/03/15 02:56:35;;;;;;;47.60;31.97;;;;;;;;;;2066931;28;20315;-58
2022/03/15 02:57:36;;;;;;;52.53;32.07;;;;;;;;;;2058530;28;20269;-61
2022/03/15 02:58:39;;;;;;;50.53;33.33;;;;;;;;;;2061839;28;20178;-57
2022/03/15 02:59:39;;;;;;;49.70;31.90;;;;;;;;;;2076047;28;20230;-58
2022/03/15 03:00:40;;;;;;;53.97;32.87;;;;;;;;;;2075264;28;20646;-59
2022/03/15 03:01:42;;;;;;;48.97;33.13;;;;;;;;;;2075267;28;20519;-60
2022/03/15 03:02:42;;;;;;;47.33;32.77;;;;;;;;;;2075716;28;20181;-57
2022/03/15 03:03:42;;;;;;;49.43;31.40;;;;;;;;;;2076549;28;20184;-61
2022/03/15 03:04:43;;;;;;;53.50;32.30;;;;;;;;;;2076590;28;20212;-57
2022/03/15 03:05:45;;;;;;;45.17;30.97;;;;;;;;;;2076696;28;20161;-57
2022/03/15 03:06:46;;;;;;;45.97;31.33;;;;;;;;;;2075597;28;20180;-57
2022/03/15 03:07:47;;;;;;;46.10;31.37;;;;;;;;;;2076724;28;20177;-59
2022/03/15 03:08:47;;;;;;;47.37;29.70;;;;;;;;;;2076595;28;20260;-60
2022/03/15 03:09:48;;;;;;;47.37;30.33;;;;;;;;;;2076080;28;20169;-58
2022/03/15 03:10:48;;;;;;;42.17;28.33;;;;;;;;;;2076539;28;20598;-57
2022/03/15 03:11:48;;;;;;;40.33;29.37;;;;;;;;;;2068657;28;20197;-55
2022/03/15 03:12:49;;;;;;;39.00;27.47;;;;;;;;;;2070100;28;20174;-56
2022/03/15 03:13:52;;;;;;;45.57;28.13;;;;;;;;;;2075208;28;20569;-57
2022/03/15 03:14:52;;;;;;;36.73;27.17;;;;;;;;;;2069520;28;20169;-60
2022/03/15 03:15:55;;;;;;;41.73;28.90;;;;;;;;;;2072715;28;20176;-59
2022/03/15 03:16:56;;;;;;;37.87;27.73;;;;;;;;;;2075711;28;20185;-57
2022/03/15 03:17:56;;;;;;;43.40;29.00;;;;;;;;;;2073971;28;20421;-59
2022/03/15 03:18:59;;;;;;;41.03;28.27;;;;;;;;;;2072054;28;20177;-58
2022/03/15 03:19:59;;;;;;;41.33;29.10;;;;;;;;;;2074199;28;20201;-59
2022/03/15 03:21:04;;;;;;;40.20;28.90;;;;;;;;;;2071879;28;20256;-55
2022/03/15 03:22:05;;;;;;;42.00;28.80;;;;;;;;;;2071532;28;20210;-57
2022/03/15 03:23:05;;;;;;;43.23;28.70;;;;;;;;;;2068936;28;20177;-56
2022/03/15 03:24:06;;;;;;;42.57;29.60;;;;;;;;;;2071387;28;20173;-57
2022/03/15 03:25:07;;;;;;;52.20;32.70;;;;;;;;;;2070271;28;20192;-59
2022/03/15 03:26:08;;;;;;;44.30;31.10;;;;;;;;;;2073196;28;20184;-59
2022/03/15 03:27:13;;;;;;;47.93;31.87;;;;;;;;;;2074939;28;20192;-57
2022/03/15 03:28:14;;;;;;;47.17;31.37;;;;;;;;;;2075719;28;20180;-59
2022/03/15 03:29:15;;;;;;;44.73;31.60;;;;;;;;;;2077949;28;20656;-62
2022/03/15 03:30:15;;;;;;;46.13;31.17;;;;;;;;;;2082132;28;20189;-57
2022/03/15 03:31:16;;;;;;;45.20;33.13;;;;;;;;;;2075328;28;20188;-58
2022/03/15 03:32:17;;;;;;;49.17;32.43;;;;;;;;;;2071951;28;20207;-56
2022/03/15 03:33:22;;;;;;;48.87;32.27;;;;;;;;;;2074176;28;20547;-58
2022/03/15 03:34:22;;;;;;;44.87;32.20;;;;;;;;;;2073971;28;20214;-58
2022/03/15 03:35:24;;;;;;;44.87;33.03;;;;;;;;;;2074668;28;20184;-56
2022/03/15 03:36:24;;;;;;;49.33;32.63;;;;;;;;;;2074630;28;20647;-56
2022/03/15 03:37:27;;;;;;;45.73;31.63;;;;;;;;;;2067636;28;20213;-56
2022/03/15 03:38:27;;;;;;;52.20;35.80;;;;;;;;;;2073158;28;20172;-56
2022/03/15 03:39:27;;;;;;;46.13;32.70;;;;;;;;;;2074265;28;20176;-54
2022/03/15 03:40:28;;;;;;;48.37;33.57;;;;;;;;;;2067201;28;20189;-54
2022/03/15 03:41:28;;;;;;;50.67;34.37;;;;;;;;;;2073178;28;20560;-56
2022/03/15 03:42:29;;;;;;;51.23;33.07;;;;;;;;;;2073778;28;20185;-54
2022/03/15 03:43:30;;;;;;;48.20;33.87;;;;;;;;;;2073737;28;20173;-56
2022/03/15 03:44:30;;;;;;;53.67;36.90;;;;;;;;;;2073427;28;20188;-55
2022/03/15 03:45:30;;;;;;;48.17;34.60;;;;;;;;;;2073737;28;20181;-54
2022/03/15 03:46:34;;;;;;;52.53;35.43;;;;;;;;;;2072442;28;20235;-56
2022/03/15 03:47:34;;;;;;;59.20;38.17;;;;;;;;;;2073992;28;20181;-57
2022/03/15 03:48:34;;;;;;;53.47;34.87;;;;;;;;;;2071574;28;20177;-57
2022/03/15 03:49:35;;;;;;;56.87;37.53;;;;;;;;;;2073920;28;20177;-58
2022/03/15 03:50:36;;;;;;;56.33;35.80;;;;;;;;;;2055403;28;20171;-57
2022/03/15 03:51:36;;;;;;;52.77;34.77;;;;;;;;;;2065734;28;20216;-55
2022/03/15 03:52:36;;;;;;;53.77;37.77;;;;;;;;;;2074133;28;20286;-55
2022/03/15 03:53:37;;;;;;;54.13;32.97;;;;;;;;;;2074334;28;20182;-57
2022/03/15 03:54:37;;;;;;;47.17;32.73;;;;;;;;;;2062299;28;20190;-58
2022/03/15 03:55:37;;;;;;;50.27;33.53;;;;;;;;;;2073276;28;20640;-57
2022/03/15 03:56:38;;;;;;;52.13;34.27;;;;;;;;;;2074108;28;20268;-55
2022/03/15 03:57:38;;;;;;;47.07;34.30;;;;;;;;;;2071446;28;20178;-56
2022/03/15 03:58:39;;;;;;;45.40;33.57;;;;;;;;;;2074895;28;20218;-54
2022/03/15 03:59:39;;;;;;;46.30;32.60;;;;;;;;;;2071105;28;20181;-54
2022/03/15 04:00:39;;;;;;;49.93;32.77;;;;;;;;;;2075665;28;20204;-58
2022/03/15 04:01:40;;;;;;;51.03;33.63;;;;;;;;;;2070993;28;20201;-56
2022/03/15 04:02:40;;;;;;;49.70;32.90;;;;;;;;;;2076712;28;20533;-56
2022/03/15 04:03:42;;;;;;;42.63;31.53;;;;;;;;;;2071270;28;20170;-54
2022/03/15 04:04:43;;;;;;;49.40;34.33;;;;;;;;;;2068556;28;20260;-54
2022/03/15 04:05:46;;;;;;;47.03;32.77;;;;;;;;;;2075655;28;20173;-55
2022/03/15 04:06:47;;;;;;;54.93;33.43;;;;;;;;;;2068986;28;20178;-52
2022/03/15 04:07:47;;;;;;;48.20;33.87;;;;;;;;;;2069648;28;20703;-56
2022/03/15 04:08:48;;;;;;;51.57;34.50;;;;;;;;;;2076365;28;20660;-56
2022/03/15 04:09:50;;;;;;;55.60;35.53;;;;;;;;;;2075660;28;20230;-56
2022/03/15 04:10:50;;;;;;;50.77;34.80;;;;;;;;;;2074168;28;20165;-54
2022/03/15 04:11:51;;;;;;;55.40;35.67;;;;;;;;;;2070251;28;20209;-55
2022/03/15 04:12:52;;;;;;;54.03;35.07;;;;;;;;;;2073302;28;20180;-54
2022/03/15 04:13:52;;;;;;;51.93;37.20;;;;;;;;;;2067193;28;20177;-54
2022/03/15 04:14:57;;;;;;;52.03;35.73;;;;;;;;;;2070601;28;20750;-55
2022/03/15 04:15:57;;;;;;;54.90;36.97;;;;;;;;;;2072962;28;20170;-55
2022/03/15 04:16:58;;;;;;;54.17;35.77;;;;;;;;;;2062790;28;20205;-54
2022/03/15 04:17:58;;;;;;;59.67;38.10;;;;;;;;;;2073525;28;20179;-55
2022/03/15 04:18:59;;;;;;;56.97;38.53;;;;;;;;;;2071509;28;20755;-54
2022/03/15 04:19:59;;;;;;;58.00;41.17;;;;;;;;;;2076114;28;20168;-54
2022/03/15 04:21:00;;;;;;;53.30;38.47;;;;;;;;;;2075692;28;20231;-54
2022/03/15 04:22:00;;;;;;;61.80;39.53;;;;;;;;;;2084932;23;20232;-59
2022/03/15 04:23:01;;;;;;;61.03;40.03;;;;;;;;;;2061257;28;20181;-59
2022/03/15 04:24:01;;;;;;;63.43;40.33;;;;;;;;;;2057168;28;20178;-60
2022/03/15 04:25:01;;;;;;;58.37;40.37;;;;;;;;;;2070838;28;20183;-60
2022/03/15 04:26:02;;;;;;;58.57;38.87;;;;;;;;;;2060138;28;20192;-61
2022/03/15 04:27:04;;;;;;;60.43;39.77;;;;;;;;;;2072382;28;20177;-61
2022/03/15 04:28:05;;;;;;;59.13;39.33;;;;;;;;;;2070866;28;20239;-61
2022/03/15 04:29:05;;;;;;;61.23;40.03;;;;;;;;;;2073561;28;20703;-59
2022/03/15 04:30:06;;;;;;;61.97;39.93;;;;;;;;;;2068562;28;20184;-59
2022/03/15 04:31:09;;;;;;;56.50;37.23;;;;;;;;;;2073459;28;20652;-59
2022/03/15 04:32:09;;;;;;;56.63;38.33;;;;;;;;;;2079188;28;20189;-59
2022/03/15 04:33:09;;;;;;;57.90;38.03;;;;;;;;;;2075115;28;20184;-60
2022/03/15 04:34:10;;;;;;;56.60;37.33;;;;;;;;;;2078070;28;20196;-59
2022/03/15 04:35:10;;;;;;;55.40;36.93;;;;;;;;;;2071810;28;20192;-62
2022/03/15 04:36:10;;;;;;;52.50;35.13;;;;;;;;;;2072750;28;20186;-59
2022/03/15 04:37:11;;;;;;;51.77;35.80;;;;;;;;;;2074903;28;20173;-59
2022/03/15 04:38:12;;;;;;;49.30;34.53;;;;;;;;;;2065714;28;20182;-57
2022/03/15 04:39:12;;;;;;;52.70;35.13;;;;;;;;;;2070875;28;20230;-61
2022/03/15 04:40:13;;;;;;;46.23;33.37;;;;;;;;;;2073065;28;20204;-55
2022/03/15 04:41:13;;;;;;;51.73;33.83;;;;;;;;;;2075039;28;20189;-58
2022/03/15 04:42:13;;;;;;;46.33;32.07;;;;;;;;;;2075133;28;20247;-61
2022/03/15 04:43:14;;;;;;;46.33;32.33;;;;;;;;;;2075302;28;20259;-60
2022/03/15 04:44:14;;;;;;;50.93;33.53;;;;;;;;;;2072289;28;20268;-60
2022/03/15 04:45:15;;;;;;;47.53;32.97;;;;;;;;;;2072101;28;20184;-60
2022/03/15 04:46:15;;;;;;;46.50;31.00;;;;;;;;;;2068840;28;20178;-59
2022/03/15 04:47:16;;;;;;;49.47;34.77;;;;;;;;;;2065201;28;20173;-59
2022/03/15 04:48:18;;;;;;;48.73;33.00;;;;;;;;;;2069102;28;20173;-57
2022/03/15 04:49:18;;;;;;;51.63;32.67;;;;;;;;;;2072801;28;20262;-60
2022/03/15 04:50:18;;;;;;;45.87;33.97;;;;;;;;;;2069424;28;20161;-56
2022/03/15 04:51:19;;;;;;;51.23;35.20;;;;;;;;;;2071157;28;20181;-56
2022/03/15 04:52:19;;;;;;;49.00;34.37;;;;;;;;;;2073465;28;20200;-57
2022/03/15 04:53:20;;;;;;;48.00;34.27;;;;;;;;;;2070449;28;20177;-59
2022/03/15 04:54:21;;;;;;;52.70;35.93;;;;;;;;;;2058232;28;20196;-58
2022/03/15 04:55:21;;;;;;;51.40;34.33;;;;;;;;;;2069199;28;20196;-57
2022/03/15 04:56:23;;;;;;;48.00;33.90;;;;;;;;;;2075874;28;20673;-59
2022/03/15 04:57:24;;;;;;;50.73;35.83;;;;;;;;;;2074721;28;20208;-57
2022/03/15 04:58:25;;;;;;;50.57;34.60;;;;;;;;;;2066886;28;20181;-56
2022/03/15 04:59:26;;;;;;;46.23;34.57;;;;;;;;;;2072084;28;20177;-56
2022/03/15 05:00:26;;;;;;;49.50;35.67;;;;;;;;;;2080473;28;20196;-58
2022/03/15 05:01:27;;;;;;;54.67;35.43;;;;;;;;;;2065728;28;20728;-58
2022/03/15 05:02:28;;;;;;;60.60;35.00;;;;;;;;;;2064870;28;20205;-55
2022/03/15 05:03:29;;;;;;;50.47;35.43;;;;;;;;;;2071140;28;20259;-59
2022/03/15 05:04:29;;;;;;;49.60;34.10;;;;;;;;;;2064269;28;20638;-58
2022/03/15 05:05:29;;;;;;;56.23;35.77;;;;;;;;;;2073245;28;20189;-58
2022/03/15 05:06:29;;;;;;;49.60;35.87;;;;;;;;;;2065761;28;20180;-59
2022/03/15 05:07:30;;;;;;;53.43;34.43;;;;;;;;;;2064267;28;20177;-58
2022/03/15 05:08:30;;;;;;;48.53;35.33;;;;;;;;;;2071936;28;20666;-59
2022/03/15 05:09:31;;;;;;;50.43;35.77;;;;;;;;;;2064164;28;20272;-57
2022/03/15 05:11:50;;;;;;;52.03;35.07;;;;;;;;;;2072289;28;20164;-60
2022/03/15 05:12:50;;;;;;;50.63;34.97;;;;;;;;;;2075450;28;20181;-56
2022/03/15 05:13:50;;;;;;;48.77;36.50;;;;;;;;;;2074682;28;20177;-56
2022/03/15 05:14:51;;;;;;;50.03;36.17;;;;;;;;;;2073767;28;20204;-57
2022/03/15 05:15:52;;;;;;;50.87;35.63;;;;;;;;;;2068282;28;20180;-59
2022/03/15 05:16:54;;;;;;;51.13;34.10;;;;;;;;;;2073633;28;20227;-60
2022/03/15 05:17:54;;;;;;;45.70;33.37;;;;;;;;;;2069589;28;20182;-59
2022/03/15 05:18:54;;;;;;;46.47;32.80;;;;;;;;;;2075610;28;20201;-59
2022/03/15 05:19:55;;;;;;;46.13;32.87;;;;;;;;;;2073460;28;20189;-62
2022/03/15 05:20:56;;;;;;;45.53;30.97;;;;;;;;;;2070504;28;20197;-57
2022/03/15 05:21:57;;;;;;;46.47;32.30;;;;;;;;;;2074915;28;20238;-61
2022/03/15 05:22:58;;;;;;;44.07;32.37;;;;;;;;;;2066085;28;20185;-55
2022/03/15 05:23:58;;;;;;;44.33;35.43;;;;;;;;;;2062431;28;20207;-60
2022/03/15 05:24:58;;;;;;;44.27;34.17;;;;;;;;;;2069290;28;20621;-59
2022/03/15 05:25:59;;;;;;;43.77;33.13;;;;;;;;;;2073194;28;20212;-59
2022/03/15 05:26:59;;;;;;;41.10;29.97;;;;;;;;;;2073122;28;20183;-60
2022/03/15 05:27:59;;;;;;;43.00;32.50;;;;;;;;;;2073141;28;20215;-59
2022/03/15 05:29:00;;;;;;;44.43;31.03;;;;;;;;;;2070875;28;20169;-61
2022/03/15 05:30:00;;;;;;;41.90;30.70;;;;;;;;;;2068866;28;20188;-55
2022/03/15 05:31:01;;;;;;;43.03;31.37;;;;;;;;;;2072965;28;20166;-55
2022/03/15 05:32:01;;;;;;;44.00;31.77;;;;;;;;;;2073123;28;20665;-56
2022/03/15 05:33:02;;;;;;;44.03;32.53;;;;;;;;;;2072879;28;20176;-59
2022/03/15 05:34:03;;;;;;;46.27;31.93;;;;;;;;;;2067898;28;20181;-61
2022/03/15 05:35:04;;;;;;;48.50;33.20;;;;;;;;;;2065947;28;20210;-59
2022/03/15 05:36:04;;;;;;;48.23;34.70;;;;;;;;;;2068704;28;20177;-58
2022/03/15 05:37:05;;;;;;;46.03;33.43;;;;;;;;;;2064322;28;20559;-58
2022/03/15 05:38:05;;;;;;;52.27;34.17;;;;;;;;;;2064104;28;20673;-62
2022/03/15 05:39:05;;;;;;;46.00;33.30;;;;;;;;;;2068100;28;20169;-60
2022/03/15 05:40:06;;;;;;;45.87;33.80;;;;;;;;;;2073045;28;20259;-61
2022/03/15 05:41:07;;;;;;;46.80;33.37;;;;;;;;;;2068055;28;20673;-58
2022/03/15 05:42:09;;;;;;;50.47;33.90;;;;;;;;;;2059760;28;20205;-62
2022/03/15 05:43:10;;;;;;;46.03;32.80;;;;;;;;;;2069032;28;20173;-62
2022/03/15 05:44:10;;;;;;;42.37;30.73;;;;;;;;;;2072112;28;20168;-61
2022/03/15 05:45:10;;;;;;;48.57;32.90;;;;;;;;;;2073273;28;20192;-61
2022/03/15 05:46:11;;;;;;;48.93;33.57;;;;;;;;;;2056343;28;20281;-58
2022/03/15 05:47:11;;;;;;;47.60;32.13;;;;;;;;;;2057823;28;20206;-62
2022/03/15 05:48:11;;;;;;;44.30;32.13;;;;;;;;;;2067557;28;20197;-59
2022/03/15 05:49:12;;;;;;;44.50;32.00;;;;;;;;;;2069648;28;20184;-58
2022/03/15 05:50:12;;;;;;;44.63;31.40;;;;;;;;;;2065578;28;20644;-55
2022/03/15 05:51:12;;;;;;;42.67;31.50;;;;;;;;;;2073586;28;20275;-56
2022/03/15 05:52:12;;;;;;;45.40;30.93;;;;;;;;;;2068047;28;20194;-59
2022/03/15 05:53:13;;;;;;;44.53;31.60;;;;;;;;;;2070407;28;20634;-59
2022/03/15 05:54:13;;;;;;;46.10;31.23;;;;;;;;;;2068107;28;20409;-61
2022/03/15 05:55:13;;;;;;;42.60;31.63;;;;;;;;;;2070623;28;20184;-57